createdAt,value
2023-06-28T00:02:35.907Z,101132.06
2023-06-28T00:05:21.348Z,101126.91
2023-06-28T00:08:06.715Z,101132.81
2023-06-28T00:10:52.215Z,101133.66
2023-06-28T00:13:37.745Z,101131.78
2023-06-28T00:16:23.148Z,101124.72
2023-06-28T00:19:08.374Z,101131.72
2023-06-28T00:21:55.340Z,101127.25
2023-06-28T00:24:40.595Z,101135.88
2023-06-28T00:27:26.480Z,101140.28
2023-06-28T00:30:12.296Z,101125.56
2023-06-28T00:33:00.017Z,101131.50
2023-06-28T00:35:45.095Z,101134.75
2023-06-28T00:38:30.442Z,101146.84
2023-06-28T00:41:15.453Z,101139.97
2023-06-28T00:44:01.030Z,101139.13
2023-06-28T00:46:46.726Z,101130.44
2023-06-28T00:49:35.831Z,101133.03
2023-06-28T00:52:21.561Z,101135.56
2023-06-28T00:55:07.173Z,101141.16
2023-06-28T00:57:52.706Z,101135.91
2023-06-28T01:00:37.979Z,101139.22
2023-06-28T01:03:23.457Z,101136.59
2023-06-28T01:06:10.502Z,101139.88
2023-06-28T01:08:55.680Z,101141.31
2023-06-28T01:11:41.567Z,101141.94
2023-06-28T01:14:26.704Z,101142.25
2023-06-28T01:17:12.504Z,101145.50
2023-06-28T01:19:57.491Z,101142.81
2023-06-28T01:22:51.795Z,101145.41
2023-06-28T01:25:37.306Z,101148.72
2023-06-28T01:28:23.521Z,101152.91
2023-06-28T01:31:08.948Z,101152.16
2023-06-28T01:33:54.367Z,101151.19
2023-06-28T01:36:39.885Z,101151.91
2023-06-28T01:39:26.530Z,101162.19
2023-06-28T01:42:11.962Z,101160.63
2023-06-28T01:44:57.241Z,101165.94
2023-06-28T01:47:42.891Z,101161.25
2023-06-28T01:50:29.550Z,101157.59
2023-06-28T01:53:15.995Z,101160.31
2023-06-28T01:56:01.495Z,101153.56
2023-06-28T01:58:47.013Z,101150.31
2023-06-28T02:01:32.010Z,101149.28
2023-06-28T02:04:17.660Z,101163.97
2023-06-28T02:07:02.843Z,101159.84
2023-06-28T02:09:48.204Z,101156.56
2023-06-28T02:12:33.607Z,101141.16
2023-06-28T02:15:19.545Z,101135.22
2023-06-28T02:18:05.267Z,101136.88
2023-06-28T02:20:51.100Z,101129.88
2023-06-28T02:23:36.559Z,101130.03
2023-06-28T02:26:21.747Z,101128.19
2023-06-28T02:29:07.234Z,101123.84
2023-06-28T02:31:52.228Z,101117.44
2023-06-28T02:34:37.499Z,101127.50
2023-06-28T02:37:22.765Z,101135.19
2023-06-28T02:40:08.829Z,101139.47
2023-06-28T02:42:54.181Z,101139.19
2023-06-28T02:45:39.637Z,101143.50
2023-06-28T02:48:24.770Z,101152.41
2023-06-28T02:51:10.133Z,101154.44
2023-06-28T02:53:55.370Z,101158.56
2023-06-28T02:56:40.335Z,101167.53
2023-06-28T02:59:25.801Z,101156.41
2023-06-28T03:02:11.203Z,101161.50
2023-06-28T03:04:56.661Z,101157.22
2023-06-28T03:07:42.145Z,101149.50
2023-06-28T03:10:27.371Z,101157.38
2023-06-28T03:13:12.615Z,101161.59
2023-06-28T03:15:57.996Z,101161.50
2023-06-28T03:18:43.329Z,101163.44
2023-06-28T03:21:28.537Z,101168.69
2023-06-28T03:24:13.992Z,101163.44
2023-06-28T03:26:59.271Z,101163.50
2023-06-28T03:29:44.662Z,101162.78
2023-06-28T03:32:30.002Z,101158.41
2023-06-28T03:35:15.541Z,101157.28
2023-06-28T03:38:00.911Z,101156.47
2023-06-28T03:40:46.108Z,101163.38
2023-06-28T03:43:31.603Z,101160.78
2023-06-28T03:46:17.286Z,101157.34
2023-06-28T03:49:02.920Z,101145.22
2023-06-28T03:51:48.497Z,101147.63
2023-06-28T03:54:33.775Z,101157.28
2023-06-28T03:57:19.584Z,101156.63
2023-06-28T04:00:06.192Z,101161.97
2023-06-28T04:02:51.656Z,101144.03
2023-06-28T04:05:36.875Z,101144.72
2023-06-28T04:08:22.108Z,101150.00
2023-06-28T04:11:07.451Z,101147.59
2023-06-28T04:13:52.742Z,101149.53
2023-06-28T04:16:38.428Z,101156.91
2023-06-28T04:19:23.845Z,101144.03
2023-06-28T04:22:09.538Z,101147.72
2023-06-28T04:24:55.061Z,101152.94
2023-06-28T04:27:40.379Z,101154.91
2023-06-28T04:30:25.716Z,101155.00
2023-06-28T04:33:10.998Z,101152.44
2023-06-28T04:35:57.406Z,101150.97
2023-06-28T04:38:42.980Z,101150.22
2023-06-28T04:41:28.873Z,101139.81
2023-06-28T04:44:14.410Z,101138.28
2023-06-28T04:46:59.606Z,101132.31
2023-06-28T04:49:50.587Z,101130.66
2023-06-28T04:52:36.208Z,101129.97
2023-06-28T04:55:21.629Z,101121.38
2023-06-28T04:58:07.179Z,101117.97
2023-06-28T05:00:53.132Z,101110.28
2023-06-28T05:03:38.903Z,101109.44
2023-06-28T05:06:23.919Z,101104.28
2023-06-28T05:09:09.345Z,101111.28
2023-06-28T05:11:54.826Z,101108.72
2023-06-28T05:14:39.900Z,101102.78
2023-06-28T05:17:25.115Z,101105.47
2023-06-28T05:20:12.981Z,101089.72
2023-06-28T05:23:18.760Z,101090.66
2023-06-28T05:26:04.046Z,101095.00
2023-06-28T05:28:49.351Z,101095.13
2023-06-28T05:31:37.914Z,101085.66
2023-06-28T05:34:23.367Z,101069.19
2023-06-28T05:37:08.641Z,101058.72
2023-06-28T05:39:54.355Z,101057.00
2023-06-28T05:42:39.566Z,101060.50
2023-06-28T05:45:29.308Z,101057.00
2023-06-28T05:48:15.103Z,101059.63
2023-06-28T05:51:00.542Z,101060.50
2023-06-28T05:53:45.895Z,101070.06
2023-06-28T05:56:31.179Z,101079.56
2023-06-28T05:59:16.430Z,101076.94
2023-06-28T06:02:02.118Z,101084.75
2023-06-28T06:04:47.246Z,101087.41
2023-06-28T06:07:32.804Z,101090.94
2023-06-28T06:10:18.011Z,101097.03
2023-06-28T06:13:03.635Z,101097.00
2023-06-28T06:15:48.829Z,101091.81
2023-06-28T06:18:34.103Z,101083.94
2023-06-28T06:21:19.491Z,101078.78
2023-06-28T06:24:05.358Z,101090.97
2023-06-28T06:26:50.854Z,101077.03
2023-06-28T06:29:36.118Z,101063.94
2023-06-28T06:32:21.511Z,101057.84
2023-06-28T06:35:07.612Z,101048.31
2023-06-28T06:37:52.900Z,101057.03
2023-06-28T06:40:38.310Z,101064.84
2023-06-28T06:43:23.768Z,101061.38
2023-06-28T06:46:09.729Z,101065.72
2023-06-28T06:48:55.116Z,101079.66
2023-06-28T06:51:40.267Z,101097.06
2023-06-28T06:54:25.543Z,101091.81
2023-06-28T06:57:10.927Z,101083.94
2023-06-28T06:59:56.399Z,101070.88
2023-06-28T07:02:41.893Z,101070.75
2023-06-28T07:05:27.214Z,101071.59
2023-06-28T07:08:12.612Z,101067.13
2023-06-28T07:10:57.993Z,101060.97
2023-06-28T07:13:43.417Z,101053.03
2023-06-28T07:16:28.685Z,101040.59
2023-06-28T07:19:15.472Z,101033.41
2023-06-28T07:22:01.138Z,101029.94
2023-06-28T07:24:46.439Z,101019.44
2023-06-28T07:27:31.965Z,100998.06
2023-06-28T07:30:17.754Z,100980.78
2023-06-28T07:33:05.706Z,100988.38
2023-06-28T07:35:52.457Z,100983.94
2023-06-28T07:38:38.145Z,100986.88
2023-06-28T07:41:23.189Z,101006.59
2023-06-28T07:44:08.605Z,100991.13
2023-06-28T07:46:53.865Z,101032.06
2023-06-28T07:49:39.343Z,101031.44
2023-06-28T07:52:24.711Z,101016.47
2023-06-28T07:55:10.200Z,101026.91
2023-06-28T07:57:56.272Z,101027.34
2023-06-28T08:00:41.593Z,101057.13
2023-06-28T08:03:27.475Z,101062.03
2023-06-28T08:06:13.491Z,101056.53
2023-06-28T08:08:59.372Z,101035.31
2023-06-28T08:11:44.738Z,100976.75
2023-06-28T08:14:29.958Z,100981.38
2023-06-28T08:17:15.427Z,100983.28
2023-06-28T08:20:00.701Z,100986.31
2023-06-28T08:22:46.097Z,101004.66
2023-06-28T08:25:31.415Z,101012.56
2023-06-28T08:28:16.753Z,101009.38
2023-06-28T08:31:02.431Z,101027.84
2023-06-28T08:33:48.897Z,101047.56
2023-06-28T08:36:34.348Z,101040.69
2023-06-28T08:39:19.868Z,100996.56
2023-06-28T08:42:05.849Z,101007.19
2023-06-28T08:44:54.822Z,101019.06
2023-06-28T08:47:41.143Z,100996.88
2023-06-28T08:50:27.118Z,100984.44
2023-06-28T08:53:16.532Z,100993.13
2023-06-28T08:56:02.753Z,100957.47
2023-06-28T08:58:49.909Z,100977.06
2023-06-28T09:01:36.757Z,100914.56
2023-06-28T09:04:28.449Z,100872.44
2023-06-28T09:07:16.385Z,100934.63
2023-06-28T09:10:02.296Z,100942.03
2023-06-28T09:12:48.950Z,100945.13
2023-06-28T09:15:35.447Z,100931.19
2023-06-28T09:18:20.998Z,100905.50
2023-06-28T09:21:06.231Z,100907.06
2023-06-28T09:23:51.468Z,100914.81
2023-06-28T09:26:36.764Z,100878.06
2023-06-28T09:29:22.141Z,100904.56
2023-06-28T09:32:07.707Z,100948.88
2023-06-28T09:34:53.319Z,100916.44
2023-06-28T09:37:39.708Z,100939.25
2023-06-28T09:40:25.047Z,100948.53
2023-06-28T09:43:15.023Z,100920.94
2023-06-28T09:46:18.197Z,100926.63
2023-06-28T09:49:03.565Z,100933.59
2023-06-28T09:52:03.419Z,100940.00
2023-06-28T09:54:50.642Z,100948.03
2023-06-28T09:57:36.306Z,100958.41
2023-06-28T10:00:22.028Z,100949.09
2023-06-28T10:03:10.077Z,100941.72
2023-06-28T10:05:57.075Z,100946.13
2023-06-28T10:08:43.374Z,100946.41
2023-06-28T10:11:32.273Z,100922.09
2023-06-28T10:14:20.218Z,100901.91
2023-06-28T10:17:06.799Z,100895.81
2023-06-28T10:19:54.010Z,100889.88
2023-06-28T10:22:39.676Z,100887.47
2023-06-28T10:25:26.910Z,100951.69
2023-06-28T10:28:14.378Z,100942.56
2023-06-28T10:30:59.670Z,100914.50
2023-06-28T10:33:45.834Z,100921.72
2023-06-28T10:36:31.003Z,100918.59
2023-06-28T10:39:17.306Z,100921.81
2023-06-28T10:42:02.920Z,100960.59
2023-06-28T10:44:56.242Z,100953.97
2023-06-28T10:47:52.485Z,100972.66
2023-06-28T10:50:42.487Z,100934.56
2023-06-28T10:53:29.735Z,100927.41
2023-06-28T10:56:15.156Z,100945.94
2023-06-28T10:59:06.162Z,100936.38
2023-06-28T11:01:55.399Z,100899.63
2023-06-28T11:04:53.429Z,100900.19
2023-06-28T11:07:38.724Z,100870.53
2023-06-28T11:10:37.501Z,100874.25
2023-06-28T11:13:52.060Z,100915.75
2023-06-28T11:16:37.569Z,100905.16
2023-06-28T11:19:22.666Z,100914.81
2023-06-28T11:22:08.303Z,100920.31
2023-06-28T11:24:55.562Z,100878.19
2023-06-28T11:27:41.970Z,100913.13
2023-06-28T11:31:26.111Z,100894.34
2023-06-28T11:34:14.926Z,100917.81
2023-06-28T11:37:01.956Z,100935.81
2023-06-28T11:39:49.207Z,100959.03
2023-06-28T11:42:34.381Z,100940.63
2023-06-28T11:45:20.609Z,100976.66
2023-06-28T11:48:06.670Z,101005.84
2023-06-28T11:51:04.528Z,100968.09
2023-06-28T11:53:49.725Z,100973.16
2023-06-28T11:56:40.868Z,100951.56
2023-06-28T11:59:25.782Z,100968.66
2023-06-28T12:02:11.934Z,100946.44
2023-06-28T12:05:00.777Z,100971.53
2023-06-28T12:07:46.593Z,100948.97
2023-06-28T12:10:34.602Z,100925.00
2023-06-28T12:13:24.026Z,100880.91
2023-06-28T12:16:20.106Z,100890.19
2023-06-28T12:19:05.346Z,100911.75
2023-06-28T12:21:53.653Z,100902.78
2023-06-28T12:24:39.480Z,100915.94
2023-06-28T12:27:24.749Z,100909.13
2023-06-28T12:30:15.571Z,100882.38
2023-06-28T12:33:06.159Z,100904.06
2023-06-28T12:35:51.741Z,100939.66
2023-06-28T12:38:36.948Z,100930.41
2023-06-28T12:41:21.872Z,100882.78
2023-06-28T12:44:07.293Z,100934.56
2023-06-28T12:46:52.808Z,100942.84
2023-06-28T12:49:38.413Z,100923.56
2023-06-28T12:52:26.060Z,100942.75
2023-06-28T12:55:13.533Z,100942.59
2023-06-28T12:57:59.146Z,100882.38
2023-06-28T13:00:45.002Z,100870.63
2023-06-28T13:03:30.256Z,100918.06
2023-06-28T13:06:15.814Z,100909.06
2023-06-28T13:09:01.034Z,100909.63
2023-06-28T13:11:46.560Z,100930.56
2023-06-28T13:14:31.769Z,100903.19
2023-06-28T13:17:17.003Z,100899.91
2023-06-28T13:20:02.012Z,100893.63
2023-06-28T13:22:47.424Z,100922.31
2023-06-28T13:25:33.139Z,100869.81
2023-06-28T13:28:18.453Z,100882.72
2023-06-28T13:31:03.928Z,100916.31
2023-06-28T13:33:49.348Z,100940.13
2023-06-28T13:36:34.687Z,100912.19
2023-06-28T13:39:20.085Z,100876.84
2023-06-28T13:42:05.837Z,100894.94
2023-06-28T13:44:51.361Z,100879.59
2023-06-28T13:47:36.554Z,100878.00
2023-06-28T13:50:21.941Z,100913.44
2023-06-28T13:53:07.391Z,100937.94
2023-06-28T13:55:53.021Z,100920.81
2023-06-28T13:58:38.892Z,100893.22
2023-06-28T14:01:24.513Z,100912.28
2023-06-28T14:04:09.482Z,100898.16
2023-06-28T14:06:55.007Z,100958.59
2023-06-28T14:09:40.313Z,100935.22
2023-06-28T14:12:25.788Z,100943.97
2023-06-28T14:15:11.706Z,100942.84
2023-06-28T14:17:57.995Z,100949.13
2023-06-28T14:20:44.162Z,100948.78
2023-06-28T14:23:29.500Z,100939.81
2023-06-28T14:26:14.966Z,100971.41
2023-06-28T14:29:00.237Z,101000.44
2023-06-28T14:31:45.657Z,100997.41
2023-06-28T14:34:31.041Z,100992.13
2023-06-28T14:37:16.904Z,100973.22
2023-06-28T14:40:02.487Z,100993.69
2023-06-28T14:42:47.860Z,101012.59
2023-06-28T14:45:33.395Z,101008.00
2023-06-28T14:48:18.727Z,100974.94
2023-06-28T14:51:04.629Z,100958.03
2023-06-28T14:53:49.765Z,100959.56
2023-06-28T14:56:35.080Z,100960.31
2023-06-28T14:59:20.557Z,100962.84
2023-06-28T15:02:06.253Z,100978.31
2023-06-28T15:04:51.232Z,100966.75
2023-06-28T15:07:36.814Z,100970.25
2023-06-28T15:10:22.149Z,100986.81
2023-06-28T15:13:07.747Z,101011.22
2023-06-28T15:15:53.133Z,100984.44
2023-06-28T15:18:38.494Z,100958.72
2023-06-28T15:21:24.166Z,100947.56
2023-06-28T15:24:09.411Z,100974.81
2023-06-28T15:26:55.943Z,100967.19
2023-06-28T15:29:40.775Z,100968.66
2023-06-28T15:32:26.297Z,100972.94
2023-06-28T15:35:11.542Z,100971.91
2023-06-28T15:37:56.909Z,100991.34
2023-06-28T15:40:42.759Z,100991.47
2023-06-28T15:43:28.593Z,100962.03
2023-06-28T15:46:13.725Z,100971.69
2023-06-28T15:48:58.817Z,100974.78
2023-06-28T15:51:44.071Z,100972.50
2023-06-28T15:54:29.222Z,100944.25
2023-06-28T15:57:14.816Z,100955.91
2023-06-28T15:59:59.931Z,100971.66
2023-06-28T16:02:45.628Z,100971.00
2023-06-28T16:05:30.964Z,100985.78
2023-06-28T16:08:16.403Z,100974.75
2023-06-28T16:11:01.687Z,100965.28
2023-06-28T16:13:47.079Z,100973.16
2023-06-28T16:16:32.491Z,100989.97
2023-06-28T16:19:17.833Z,100992.19
2023-06-28T16:22:03.326Z,100963.50
2023-06-28T16:24:48.685Z,100953.97
2023-06-28T16:27:34.114Z,100990.28
2023-06-28T16:30:19.319Z,101003.34
2023-06-28T16:33:08.536Z,101002.88
2023-06-28T16:35:53.577Z,100993.97
2023-06-28T16:38:39.194Z,100984.97
2023-06-28T16:41:24.575Z,100979.41
2023-06-28T16:44:09.922Z,100957.06
2023-06-28T16:46:55.329Z,100956.72
2023-06-28T16:49:40.777Z,100960.72
2023-06-28T16:52:26.050Z,100979.66
2023-06-28T16:55:11.499Z,100991.44
2023-06-28T16:57:56.946Z,100991.06
2023-06-28T17:00:42.470Z,100984.34
2023-06-28T17:03:27.976Z,100983.09
2023-06-28T17:06:13.349Z,100976.34
2023-06-28T17:08:59.526Z,100977.28
2023-06-28T17:11:44.977Z,100975.19
2023-06-28T17:14:29.926Z,100972.28
2023-06-28T17:17:15.590Z,100971.00
2023-06-28T17:20:00.999Z,100965.41
2023-06-28T17:22:46.230Z,100966.13
2023-06-28T17:25:31.547Z,100961.56
2023-06-28T17:28:17.166Z,100972.06
2023-06-28T17:31:02.535Z,100972.78
2023-06-28T17:33:47.915Z,100962.50
2023-06-28T17:36:33.231Z,100965.69
2023-06-28T17:39:19.231Z,100960.09
2023-06-28T17:42:07.707Z,100951.03
2023-06-28T17:44:53.105Z,100967.97
2023-06-28T17:47:38.389Z,100962.44
2023-06-28T17:50:23.912Z,100966.75
2023-06-28T17:53:09.450Z,100959.56
2023-06-28T17:55:54.938Z,100958.13
2023-06-28T17:58:41.353Z,100971.31
2023-06-28T18:01:26.654Z,100977.34
2023-06-28T18:04:11.977Z,100973.78
2023-06-28T18:06:57.542Z,100979.97
2023-06-28T18:09:42.744Z,100977.97
2023-06-28T18:12:28.073Z,100969.28
2023-06-28T18:15:13.439Z,100968.31
2023-06-28T18:17:58.630Z,100966.13
2023-06-28T18:20:44.292Z,100996.03
2023-06-28T18:23:29.778Z,100988.22
2023-06-28T18:26:15.287Z,100986.22
2023-06-28T18:29:00.694Z,100987.81
2023-06-28T18:31:46.106Z,100972.38
2023-06-28T18:34:31.542Z,100985.09
2023-06-28T18:37:17.026Z,100979.97
2023-06-28T18:40:02.523Z,100991.50
2023-06-28T18:42:47.956Z,101004.94
2023-06-28T18:45:33.474Z,101005.91
2023-06-28T18:48:18.939Z,101006.81
2023-06-28T18:51:04.422Z,101001.16
2023-06-28T18:53:49.717Z,100987.22
2023-06-28T18:56:35.123Z,100996.25
2023-06-28T18:59:20.617Z,100985.13
2023-06-28T19:02:06.511Z,101009.84
2023-06-28T19:04:51.904Z,101009.53
2023-06-28T19:07:37.321Z,101001.44
2023-06-28T19:10:22.479Z,100999.69
2023-06-28T19:13:08.022Z,101003.13
2023-06-28T19:15:53.276Z,100995.66
2023-06-28T19:18:38.629Z,100994.44
2023-06-28T19:21:23.976Z,100994.88
2023-06-28T19:24:09.256Z,101007.31
2023-06-28T19:26:55.546Z,101005.53
2023-06-28T19:29:40.798Z,100996.81
2023-06-28T19:32:26.057Z,101000.47
2023-06-28T19:35:11.534Z,101002.25
2023-06-28T19:37:56.935Z,101017.03
2023-06-28T19:40:42.550Z,101004.66
2023-06-28T19:43:27.813Z,100999.34
2023-06-28T19:46:13.326Z,101021.63
2023-06-28T19:48:58.658Z,101030.63
2023-06-28T19:51:44.110Z,101012.34
2023-06-28T19:54:29.523Z,100999.00
2023-06-28T19:57:14.769Z,101010.59
2023-06-28T20:00:00.242Z,100994.94
2023-06-28T20:02:45.777Z,100995.91
2023-06-28T20:05:31.102Z,101038.84
2023-06-28T20:08:16.215Z,101044.69
2023-06-28T20:11:01.528Z,101032.38
2023-06-28T20:13:46.778Z,101024.44
2023-06-28T20:16:32.421Z,101037.53
2023-06-28T20:19:17.880Z,101021.72
2023-06-28T20:22:03.194Z,101022.59
2023-06-28T20:24:48.517Z,101006.06
2023-06-28T20:27:34.636Z,101015.69
2023-06-28T20:30:19.786Z,101005.38
2023-06-28T20:33:06.706Z,101016.16
2023-06-28T20:35:52.690Z,101017.00
2023-06-28T20:38:37.803Z,101017.16
2023-06-28T20:41:23.240Z,101034.81
2023-06-28T20:44:08.690Z,101041.94
2023-06-28T20:46:53.900Z,101029.63
2023-06-28T20:49:39.289Z,101032.34
2023-06-28T20:52:24.974Z,101052.56
2023-06-28T20:55:10.077Z,101038.56
2023-06-28T20:57:55.522Z,101045.53
2023-06-28T21:00:40.944Z,101037.53
2023-06-28T21:03:26.403Z,101032.25
2023-06-28T21:06:11.677Z,101031.63
2023-06-28T21:08:56.893Z,101029.94
2023-06-28T21:11:41.902Z,101034.91
2023-06-28T21:14:27.364Z,101023.47
2023-06-28T21:17:12.822Z,101025.19
2023-06-28T21:19:58.057Z,101013.84
2023-06-28T21:22:43.326Z,100998.06
2023-06-28T21:25:28.840Z,100999.19
2023-06-28T21:28:14.752Z,101013.38
2023-06-28T21:31:00.187Z,101016.88
2023-06-28T21:33:45.542Z,101017.69
2023-06-28T21:36:30.941Z,101021.03
2023-06-28T21:39:16.431Z,101028.00
2023-06-28T21:42:01.694Z,101027.03
2023-06-28T21:44:47.254Z,101028.72
2023-06-28T21:47:32.762Z,101018.22
2023-06-28T21:50:18.033Z,101015.63
2023-06-28T21:53:03.610Z,101014.78
2023-06-28T21:55:49.063Z,101010.41
2023-06-28T21:58:34.231Z,101013.69
2023-06-28T22:01:19.601Z,101012.97
2023-06-28T22:04:05.161Z,101028.09
2023-06-28T22:07:05.263Z,101037.84
2023-06-28T22:09:51.688Z,101039.66
2023-06-28T22:12:38.677Z,101041.31
2023-06-28T22:15:27.420Z,101032.50
2023-06-28T22:18:12.602Z,101021.06
2023-06-28T22:20:58.214Z,101021.03
2023-06-28T22:23:43.444Z,101014.66
2023-06-28T22:26:28.799Z,101018.03
2023-06-28T22:29:14.289Z,101016.25
2023-06-28T22:31:59.593Z,101012.72
2023-06-28T22:34:46.401Z,101012.72
2023-06-28T22:37:31.437Z,101007.38
2023-06-28T22:40:16.735Z,101006.88
2023-06-28T22:43:02.217Z,101002.63
2023-06-28T22:45:50.557Z,101009.91
2023-06-28T22:48:35.946Z,101014.25
2023-06-28T22:51:21.026Z,101001.69
2023-06-28T22:54:10.500Z,100996.41
2023-06-28T22:56:56.241Z,100994.84
2023-06-28T22:59:41.653Z,100997.44
2023-06-28T23:02:27.054Z,100970.28
2023-06-28T23:05:12.509Z,100942.50
2023-06-28T23:07:57.815Z,100934.69
2023-06-28T23:10:43.687Z,100923.38
2023-06-28T23:13:29.121Z,100929.47
2023-06-28T23:16:14.447Z,100920.66
2023-06-28T23:19:00.891Z,100919.78
2023-06-28T23:21:46.459Z,100922.41
2023-06-28T23:24:31.768Z,100924.88
2023-06-28T23:27:17.134Z,100922.22
2023-06-28T23:30:02.770Z,100922.13
2023-06-28T23:32:47.867Z,100919.53
2023-06-28T23:35:35.051Z,100921.34
2023-06-28T23:38:20.389Z,100942.28
2023-06-28T23:41:06.780Z,100935.28
2023-06-28T23:43:52.211Z,100930.88
2023-06-28T23:46:37.664Z,100916.97
2023-06-28T23:49:23.099Z,100905.78
2023-06-28T23:52:09.045Z,100904.91
2023-06-28T23:54:54.306Z,100905.97
2023-06-28T23:57:39.231Z,100904.97
